• Join FlightAware (Why Join?)
  • Login
  • US Flag 
12:04AM EDT


 

Airport Tracker/Info


-or-


 

Live Flight TrackerFlight Track Log ✈ N610DA ✈ 19-Mar-2014 ✈ KSFB - KSFB

Flight Track Log - Related Links

Times and Time Zones

All times are in EDT time to prevent confusion due to time zone crossing. See the N610DA flight status page for this flight to view local times or setup timezone preferences in your user account.

Time Position Orientation Groundspeed Altitude Reporting Facility
EDT Latitude Longitude Course Direction KTS MPH feet Rate Location/Type
12:38PM 28.7833 -81.2167 103° East 112 129 600  Level Orlando TRACON
12:39PM 28.7833 -81.2000 90° East 103 119 1,100 720 Climbing Orlando TRACON
12:40PM 28.8167 -81.1833 24° Northeast 107 123 1,800 660 Climbing Orlando TRACON
12:41PM 28.8167 -81.2167 270° West 108 124 2,600 660 Climbing Orlando TRACON
12:42PM 28.8167 -81.2500 270° West 105 121 3,300 660 Climbing Orlando TRACON
12:43PM 28.8167 -81.2833 270° West 99 114 4,000 360 Climbing Orlando TRACON
12:44PM 28.7770 -81.2349 103° East  Level Estimated
12:44PM 28.8167 -81.3167 270° West 125 144 4,100  Level Orlando TRACON
12:45PM 28.8167 -81.3500 270° West 128 147 4,100  Level Orlando TRACON
12:46PM 28.8167 -81.4000 270° West 130 150 4,100  Level Orlando TRACON
12:47PM 28.8167 -81.4333 270° West 135 155 4,100  Level Orlando TRACON
12:48PM 28.8167 -81.4833 270° West 132 152 4,100 -60 Level Orlando TRACON
12:49PM 28.8167 -81.5167 270° West 134 154 4,000 -60 Descending Orlando TRACON
12:51PM 28.8383 -81.5983 287° West 135 155 4,000  Level Jacksonville Center
12:52PM 28.8597 -81.6383 301° West 133 153 4,000 -60 Level Jacksonville Center
12:53PM 28.8725 -81.6667 297° West 137 158 3,900 -60 Descending Jacksonville Center
12:54PM 28.9042 -81.7161 306° West 139 160 3,900  Level Jacksonville Center
12:55PM 28.9275 -81.7514 307° West 133 153 4,000  Climbing Jacksonville Center
12:56PM 28.9383 -81.7869 289° West 137 158 3,900 -60 Descending Jacksonville Center
12:57PM 28.9572 -81.8272 298° West 139 160 3,900 60 Level Jacksonville Center
12:58PM 28.9703 -81.8672 290° West 133 153 4,100  Climbing Jacksonville Center
12:59PM 28.9831 -81.9028 292° West 129 148 3,900 -60 Descending Jacksonville Center
01:00PM 28.9978 -81.9383 295° West 111 128 4,000  Climbing Jacksonville Center
01:01PM 29.0128 -81.9714 297° West 122 140 4,000  Level Jacksonville Center
01:02PM 29.0275 -82.0067 296° West 114 131 4,000 -180 Level Jacksonville Center
01:03PM 29.0153 -82.0331 242° Southwest 108 124 3,700 -540 Descending Jacksonville Center
01:04PM 28.9883 -82.0547 215° Southwest 102 117 2,800 -780 Descending Jacksonville Center
01:05PM 28.9739 -82.0928 247° West 120 138 2,000 -420 Descending Jacksonville Center
01:06PM 28.9594 -82.1261 244° Southwest 107 123 2,000  Level Jacksonville Center
01:08PM 28.9492 -82.1594 251° West 118 136 2,000  Level Jacksonville Center
01:09PM 28.9411 -82.1997 257° West 117 135 2,000 -60 Level Jacksonville Center
01:09PM 28.9392 -82.2258 265° West 109 125 1,900 -180 Descending Jacksonville Center
01:10PM 28.9664 -82.2258 360° North 121 139 1,700 -120 Descending Jacksonville Center
01:12PM 29.0081 -82.2256 360° North 117 135 1,700  Level Jacksonville Center
01:13PM 29.0353 -82.2253 North 111 128 1,800  Climbing Jacksonville Center
01:14PM 29.0728 -82.2250 360° North 115 132 1,700 -300 Descending Jacksonville Center
01:15PM 29.0978 -82.2247 North 104 120 1,200 -480 Descending Jacksonville Center
01:16PM 29.1292 -82.2247 360° North 100 115 800 -180 Descending Jacksonville Center
01:18PM 29.1897 -82.2242 360° North 95 109 600 120 Descending Jacksonville Center
01:19PM 29.1789 -82.1886 109° East 112 129 1,400 660 Climbing Jacksonville Center
01:20PM 29.1642 -82.1600 121° Southeast 102 117 2,100 360 Climbing Jacksonville Center
01:21PM 29.1472 -82.1294 122° Southeast 127 146 2,100 300 Level Jacksonville Center
01:22PM 29.1283 -82.0986 125° Southeast 123 142 2,700 660 Climbing Jacksonville Center
01:23PM 29.1114 -82.0750 129° Southeast 96 110 3,500 600 Climbing Jacksonville Center
01:25PM 29.0667 -82.0167 131° Southeast 111 128 4,900 420 Climbing Orlando TRACON
01:26PM 29.0333 -81.9833 139° Southeast 118 136 5,100  Climbing Orlando TRACON
01:27PM 29.0167 -81.9500 120° Southeast 139 160 5,000 -60 Descending Orlando TRACON
01:28PM 28.9833 -81.9167 139° Southeast 135 155 5,000 -60 Level Orlando TRACON
01:30PM 28.9500 -81.8833 139° Southeast 137 158 4,900 -60 Descending Orlando TRACON
01:30PM 28.9333 -81.8667 139° Southeast 137 158 4,900  Level Orlando TRACON
01:31PM 28.9000 -81.8333 139° Southeast 137 158 4,900  Level Orlando TRACON
01:32PM 28.8833 -81.8000 120° Southeast 137 158 4,900  Level Orlando TRACON
01:33PM 28.8500 -81.7667 139° Southeast 138 159 4,900  Level Orlando TRACON
01:34PM 28.8333 -81.7333 120° Southeast 136 157 5,000  Climbing Orlando TRACON
01:35PM 28.8000 -81.7000 139° Southeast 136 157 4,900 -420 Descending Orlando TRACON
01:36PM 28.7833 -81.6667 120° Southeast 141 162 4,200 -900 Descending Orlando TRACON
01:37PM 28.7500 -81.6333 139° Southeast 138 159 3,200 -600 Descending Orlando TRACON
01:38PM 28.7500 -81.6000 90° East 124 143 3,000 -60 Descending Orlando TRACON
01:40PM 28.7833 -81.6333 319° Northwest 128 147 3,100  Climbing Orlando TRACON
01:40PM 28.7833 -81.6667 270° West 135 155 3,100 -60 Level Orlando TRACON
01:41PM 28.7667 -81.6500 139° Southeast 128 147 3,000  Descending Orlando TRACON
01:43PM 28.7500 -81.6167 120° Southeast 125 144 3,100  Climbing Orlando TRACON
01:44PM 28.7833 -81.6333 336° Northwest 136 157 3,100 -60 Level Orlando TRACON
01:45PM 28.8000 -81.6667 300° West 126 145 3,000 -120 Descending Orlando TRACON
01:45PM 28.7833 -81.6500 139° Southeast 108 124 2,900  Descending Orlando TRACON
01:46PM 28.7667 -81.6333 139° Southeast 107 123 3,100  Climbing Orlando TRACON
01:47PM 28.7500 -81.6000 120° Southeast 123 142 3,000 -240 Descending Orlando TRACON
01:49PM 28.7333 -81.5667 120° Southeast 119 137 2,600 -480 Descending Orlando TRACON
01:50PM 28.7000 -81.5167 127° Southeast 135 155 2,000 -300 Descending Orlando TRACON
01:51PM 28.6833 -81.5000 139° Southeast 104 120 2,000  Level Orlando TRACON
01:52PM 28.6667 -81.4667 120° Southeast 121 139 2,000 60 Level Orlando TRACON
01:53PM 28.7000 -81.4500 24° Northeast 117 135 2,200  Climbing Orlando TRACON
01:53PM 28.7167 -81.4500 360° North 120 138 2,100 -180 Descending Orlando TRACON
01:55PM 28.7500 -81.4667 336° Northwest 116 133 1,900 -120 Descending Orlando TRACON
01:56PM 28.7833 -81.4500 24° Northeast 112 129 1,900 -180 Level Orlando TRACON
01:57PM 28.7833 -81.4000 90° East 107 123 1,600 -120 Descending Orlando TRACON
01:58PM 28.7833 -81.3667 90° East 112 129 1,700 -60 Climbing Orlando TRACON
01:59PM 28.7833 -81.3333 90° East 106 122 1,500 -480 Descending Orlando TRACON
02:00PM 28.7833 -81.3000 90° East 105 121 800 -720 Descending Orlando TRACON